Time;durP1;ratioP1;P1;durP2;ratioP2;P2;SDS_P1;SDS_P2;PMS_P1;PMS_P2;Temp;Humidity;BMP_temperature;BMP_pressure;BME280_temperature;BME280_humidity;BME280_pressure;Samples;Min_cycle;Max_cycle;Signal;HPM_P1;HPM_P2
2021/12/05 00:23:11;;;;;;;19.10;3.80;;;;;;;3.84;85.45;99771.72;5073376;28;20036;-64
2021/12/05 00:25:38;;;;;;;10.95;3.22;;;;;;;3.86;84.99;99775.25;5073038;28;20052;-64
2021/12/05 00:37:10;;;;;;;13.25;3.40;;;;;;;3.83;84.31;99771.69;4993190;28;20404;-64
2021/12/05 00:50:29;;;;;;;15.88;3.53;;;;;;;3.75;85.72;99772.41;5011281;28;20073;-63
2021/12/05 00:53:52;;;;;;;15.27;4.07;;;;;;;3.73;85.29;99781.97;5010760;28;20439;-63
2021/12/05 01:09:38;;;;;;;21.23;4.95;;;;;;;3.37;85.84;99788.97;5011794;28;20037;-64
2021/12/05 01:12:32;;;;;;;13.82;4.28;;;;;;;3.29;86.33;99780.97;5048955;28;20107;-65
2021/12/05 01:15:05;;;;;;;21.85;4.20;;;;;;;3.24;86.05;99780.88;5052622;28;20032;-64
2021/12/05 01:17:42;;;;;;;15.98;4.55;;;;;;;3.23;86.14;99773.88;5052723;28;20028;-64
2021/12/05 01:20:16;;;;;;;14.35;4.13;;;;;;;3.20;86.79;99775.53;5034630;28;20033;-64
2021/12/05 01:22:48;;;;;;;12.68;3.97;;;;;;;3.17;86.66;99780.69;5052503;28;20109;-64
2021/12/05 01:27:59;;;;;;;20.23;4.40;;;;;;;3.10;87.19;99776.19;5052444;28;20041;-64
2021/12/05 01:33:25;;;;;;;12.13;4.00;;;;;;;3.04;87.13;99771.72;5024776;28;20033;-64
2021/12/05 01:38:41;;;;;;;15.82;4.22;;;;;;;2.99;87.18;99775.91;5056226;28;20033;-63
2021/12/05 01:47:23;;;;;;;17.98;4.35;;;;;;;3.00;87.51;99780.31;5056304;28;20068;-64
2021/12/05 02:00:12;;;;;;;12.27;3.67;;;;;;;2.88;88.54;99775.69;5056180;28;20037;-64
2021/12/05 02:08:08;;;;;;;12.48;3.78;;;;;;;2.82;88.10;99766.81;5055994;28;20590;-64
2021/12/05 02:16:04;;;;;;;16.75;3.97;;;;;;;2.84;88.11;99770.34;5055707;28;20522;-64
2021/12/05 02:45:28;;;;;;;13.60;4.00;;;;;;;2.82;89.12;99758.97;5075435;28;20037;-63
2021/12/05 02:47:54;;;;;;;16.55;3.70;;;;;;;2.84;89.07;99762.53;5075116;28;20016;-63
2021/12/05 02:50:24;;;;;;;15.88;3.80;;;;;;;2.86;89.35;99751.25;5075074;28;20036;-64
2021/12/05 02:52:52;;;;;;;11.30;3.60;;;;;;;2.85;89.25;99759.06;5075165;28;20063;-64
2021/12/05 02:55:28;;;;;;;12.35;3.70;;;;;;;2.81;89.04;99742.44;5056972;28;20456;-64
2021/12/05 02:57:59;;;;;;;14.85;4.10;;;;;;;2.85;89.23;99753.84;5074875;28;20066;-63
2021/12/05 03:03:27;;;;;;;12.07;3.45;;;;;;;2.83;89.43;99746.00;5074826;28;20036;-64
2021/12/05 03:06:00;;;;;;;11.38;3.38;;;;;;;2.81;89.43;99752.88;5074848;28;20056;-63
2021/12/05 03:08:27;;;;;;;13.75;3.90;;;;;;;2.78;89.82;99759.75;5074698;28;20067;-64
2021/12/05 03:10:54;;;;;;;14.02;3.67;;;;;;;2.78;89.51;99744.09;5074663;28;20024;-63
2021/12/05 03:13:20;;;;;;;13.82;4.50;;;;;;;2.83;89.47;99748.59;5074630;28;20040;-63
2021/12/05 03:15:46;;;;;;;12.88;3.30;;;;;;;2.85;89.99;99759.06;5074716;28;20133;-64
2021/12/05 03:18:11;;;;;;;15.73;4.00;;;;;;;2.86;90.35;99740.81;5074606;28;20364;-63
2021/12/05 03:20:37;;;;;;;15.25;4.40;;;;;;;2.92;90.03;99737.50;5074422;28;20043;-63
2021/12/05 03:23:03;;;;;;;15.00;3.70;;;;;;;2.89;89.99;99740.03;5074344;28;20050;-63
2021/12/05 03:25:28;;;;;;;13.02;4.38;;;;;;;2.91;89.83;99746.16;5074696;28;20103;-64
2021/12/05 03:27:54;;;;;;;9.40;3.40;;;;;;;2.93;89.73;99742.75;5074241;28;20463;-63
2021/12/05 03:30:25;;;;;;;13.77;3.90;;;;;;;2.96;89.69;99745.44;5073634;28;20415;-63
2021/12/05 03:32:53;;;;;;;11.95;4.05;;;;;;;2.98;89.39;99748.06;5073674;28;20425;-63
2021/12/05 03:35:22;;;;;;;14.27;3.75;;;;;;;2.96;89.60;99749.78;5074105;28;20393;-63
2021/12/05 03:37:48;;;;;;;11.00;3.97;;;;;;;2.96;89.94;99755.88;5074378;28;20044;-63
2021/12/05 03:40:17;;;;;;;13.13;3.97;;;;;;;2.96;89.58;99748.03;5074128;28;20025;-64
2021/12/05 03:42:43;;;;;;;11.45;3.80;;;;;;;2.98;89.73;99761.13;5073926;28;20049;-63
2021/12/05 03:45:12;;;;;;;11.40;4.38;;;;;;;3.03;89.30;99751.66;5074068;28;20047;-63
2021/12/05 03:47:38;;;;;;;11.77;3.70;;;;;;;3.00;89.26;99746.41;5073548;28;20035;-63
2021/12/05 03:50:09;;;;;;;15.88;3.97;;;;;;;3.02;89.31;99742.06;5056172;28;20024;-63
2021/12/05 03:52:38;;;;;;;9.02;3.50;;;;;;;3.03;89.64;99738.63;5073460;28;20520;-63
2021/12/05 03:55:06;;;;;;;10.98;3.95;;;;;;;3.03;89.41;99740.34;5073682;28;20039;-63
2021/12/05 03:57:32;;;;;;;14.50;4.05;;;;;;;3.07;89.54;99750.00;5073751;28;20021;-63
2021/12/05 03:59:58;;;;;;;9.65;4.03;;;;;;;3.04;89.45;99758.66;5073750;28;20035;-64
2021/12/05 04:02:23;;;;;;;11.60;4.38;;;;;;;3.06;89.66;99754.34;5073458;28;20032;-63
2021/12/05 04:04:50;;;;;;;11.70;4.07;;;;;;;3.07;89.41;99748.28;5073647;28;20029;-63
2021/12/05 04:07:16;;;;;;;11.77;4.10;;;;;;;3.12;89.32;99753.59;5073745;28;20050;-63
2021/12/05 04:09:42;;;;;;;14.25;4.00;;;;;;;3.16;89.41;99752.81;5073533;28;20086;-63
2021/12/05 04:12:09;;;;;;;12.13;4.22;;;;;;;3.12;89.39;99749.25;5073507;28;20032;-63
2021/12/05 04:14:44;;;;;;;15.02;4.60;;;;;;;3.18;89.28;99748.53;5073561;28;20071;-63
2021/12/05 04:17:14;;;;;;;13.25;4.70;;;;;;;3.22;89.52;99759.09;5073257;28;20029;-64
2021/12/05 04:19:40;;;;;;;11.13;4.18;;;;;;;3.23;89.35;99760.84;5073546;28;20032;-63
2021/12/05 04:22:08;;;;;;;10.23;3.85;;;;;;;3.30;88.97;99758.34;5073354;28;20545;-64
2021/12/05 04:24:34;;;;;;;8.90;3.67;;;;;;;3.31;89.20;99747.97;5073318;28;20036;-63
2021/12/05 04:27:00;;;;;;;6.70;3.50;;;;;;;3.34;89.44;99754.97;5073504;28;20107;-64
2021/12/05 04:29:26;;;;;;;14.23;4.20;;;;;;;3.37;88.81;99752.44;5073327;28;20429;-63
2021/12/05 04:31:51;;;;;;;10.30;3.53;;;;;;;3.32;89.05;99741.88;5073064;28;20517;-63
2021/12/05 04:34:17;;;;;;;8.10;3.45;;;;;;;3.41;88.58;99752.53;5073157;28;20112;-63
2021/12/05 04:36:43;;;;;;;15.05;3.95;;;;;;;3.39;88.99;99756.84;5073195;28;20028;-63
2021/12/05 04:39:18;;;;;;;7.50;3.30;;;;;;;3.42;89.08;99756.88;5073048;28;20040;-64
2021/12/05 04:41:43;;;;;;;8.05;3.90;;;;;;;3.43;88.38;99758.69;5073142;28;20490;-63
2021/12/05 04:44:10;;;;;;;8.75;3.83;;;;;;;3.44;89.09;99743.88;5072961;28;20029;-63
2021/12/05 04:46:37;;;;;;;9.15;3.60;;;;;;;3.45;89.32;99754.34;5073088;28;20036;-64
2021/12/05 04:49:06;;;;;;;11.20;3.95;;;;;;;3.45;88.58;99754.34;5073015;28;20524;-63
2021/12/05 04:51:35;;;;;;;8.98;3.95;;;;;;;3.46;89.09;99752.63;5073273;28;20035;-63
2021/12/05 04:54:03;;;;;;;11.35;3.83;;;;;;;3.51;88.72;99750.97;5073011;28;20479;-64
2021/12/05 04:56:30;;;;;;;10.25;3.33;;;;;;;3.54;88.29;99751.06;5072903;28;20029;-63
2021/12/05 04:58:57;;;;;;;11.70;3.63;;;;;;;3.52;88.39;99750.16;5072904;28;20031;-62
2021/12/05 05:01:23;;;;;;;6.53;3.63;;;;;;;3.53;88.40;99751.03;5072933;28;20475;-63
2021/12/05 05:03:50;;;;;;;11.02;4.00;;;;;;;3.48;89.00;99751.81;5072771;28;20024;-64
2021/12/05 05:06:18;;;;;;;8.98;3.45;;;;;;;3.50;89.45;99744.00;5076887;28;20111;-63
2021/12/05 05:08:50;;;;;;;10.52;4.47;;;;;;;3.50;88.83;99744.88;5077057;28;20079;-64
2021/12/05 05:11:19;;;;;;;9.32;3.30;;;;;;;3.49;89.30;99742.25;5077185;28;20017;-63
2021/12/05 05:13:46;;;;;;;8.18;3.47;;;;;;;3.47;89.86;99746.56;5076735;28;20054;-63
2021/12/05 05:16:14;;;;;;;9.38;3.70;;;;;;;3.49;89.28;99750.97;5076939;28;20029;-63
2021/12/05 05:18:53;;;;;;;9.63;3.92;;;;;;;3.49;89.14;99761.41;5076797;28;20463;-63
2021/12/05 05:45:14;;;;;;;6.82;3.10;;;;;;;3.44;90.00;99770.88;5076554;28;20123;-63
2021/12/05 05:50:17;;;;;;;4.75;2.70;;;;;;;3.41;90.00;99778.63;5076490;28;19909;-63
2021/12/05 05:52:42;;;;;;;5.53;2.95;;;;;;;3.40;89.36;99783.84;5076259;28;20473;-63
2021/12/05 05:55:10;;;;;;;6.78;3.00;;;;;;;3.39;89.31;99788.19;5076089;28;20032;-63
2021/12/05 05:57:42;;;;;;;6.40;3.33;;;;;;;3.36;89.65;99785.50;5076215;28;20028;-63
2021/12/05 06:00:18;;;;;;;4.10;2.60;;;;;;;3.34;88.83;99787.19;5058231;28;20021;-63
2021/12/05 06:05:30;;;;;;;3.75;2.35;;;;;;;3.31;89.32;99800.19;5076213;28;20047;-63
2021/12/05 06:07:56;;;;;;;4.35;2.40;;;;;;;3.24;89.43;99800.88;5075904;28;20036;-63
2021/12/05 06:10:25;;;;;;;4.75;2.40;;;;;;;3.23;89.72;99805.22;5075856;28;20024;-63
2021/12/05 06:12:51;;;;;;;5.40;2.40;;;;;;;3.17;89.64;99802.47;5075587;28;20112;-63
2021/12/05 06:15:19;;;;;;;5.70;2.60;;;;;;;3.18;89.51;99811.19;5075520;28;20070;-64
2021/12/05 06:17:45;;;;;;;3.70;2.15;;;;;;;3.12;90.04;99805.81;5075628;28;20486;-64
2021/12/05 06:20:16;;;;;;;4.80;2.45;;;;;;;3.10;89.86;99803.16;5075619;28;20119;-63
2021/12/05 06:22:43;;;;;;;3.55;2.30;;;;;;;3.07;90.02;99810.03;5075550;28;20024;-64
2021/12/05 06:25:12;;;;;;;5.65;2.22;;;;;;;3.07;90.40;99823.97;5075490;28;20115;-64
2021/12/05 06:27:38;;;;;;;4.65;2.90;;;;;;;3.05;90.57;99825.66;5075621;28;20085;-64
2021/12/05 06:30:10;;;;;;;4.68;2.38;;;;;;;3.07;90.21;99820.47;5075477;28;20052;-64
2021/12/05 06:38:08;;;;;;;5.10;2.33;;;;;;;3.04;90.19;99836.97;5075389;28;20039;-63
2021/12/05 06:46:20;;;;;;;4.85;2.70;;;;;;;2.99;90.84;99842.03;5075354;28;20035;-64
2021/12/05 06:48:52;;;;;;;5.60;2.65;;;;;;;2.99;90.60;99846.38;5074995;28;20029;-64
2021/12/05 06:51:24;;;;;;;4.13;2.60;;;;;;;2.99;90.97;99838.53;5057151;28;20032;-64
2021/12/05 06:53:50;;;;;;;3.67;2.78;;;;;;;3.02;90.61;99841.25;5074999;28;20035;-63
2021/12/05 06:56:16;;;;;;;5.28;2.92;;;;;;;3.04;91.20;99852.63;5074982;28;20029;-64
2021/12/05 06:58:42;;;;;;;5.55;3.00;;;;;;;3.04;90.92;99849.09;5074701;28;20070;-63
2021/12/05 07:01:10;;;;;;;4.72;3.03;;;;;;;3.08;90.86;99849.22;5075109;28;20024;-65
2021/12/05 07:03:39;;;;;;;5.30;3.45;;;;;;;3.05;91.12;99862.19;5074733;28;20112;-64
2021/12/05 07:06:29;;;;;;;6.00;3.17;;;;;;;3.03;91.00;99869.09;5075177;28;20055;-63
2021/12/05 07:08:54;;;;;;;5.22;3.53;;;;;;;3.04;91.30;99868.28;5073935;28;20119;-63
2021/12/05 07:11:28;;;;;;;5.53;3.53;;;;;;;3.07;91.13;99873.53;5074643;28;20028;-64
2021/12/05 07:16:37;;;;;;;6.20;3.95;;;;;;;3.10;91.48;99873.63;5074837;28;20383;-63
2021/12/05 07:21:52;;;;;;;5.80;3.88;;;;;;;3.17;91.39;99879.88;5074551;28;20039;-63
2021/12/05 07:40:20;;;;;;;7.07;4.18;;;;;;;3.20;90.94;99875.63;5073903;28;20128;-63
2021/12/05 07:40:49;;;;;;;8.18;4.15;;;;;;;3.22;91.16;99901.78;5074210;28;20083;-63
2021/12/05 07:43:16;;;;;;;8.68;5.32;;;;;;;3.20;91.77;99896.50;5073891;28;20112;-64
2021/12/05 07:45:49;;;;;;;5.95;4.10;;;;;;;3.24;91.67;99908.78;5074099;28;20035;-63
2021/12/05 07:48:20;;;;;;;7.28;3.97;;;;;;;3.24;91.89;99916.63;5055941;28;20028;-64
2021/12/05 07:51:32;;;;;;;7.47;3.97;;;;;;;3.24;92.18;99916.63;5074107;28;20446;-64
2021/12/05 07:56:45;;;;;;;6.15;3.92;;;;;;;3.28;91.45;99916.69;4992354;28;20026;-64
2021/12/05 07:59:40;;;;;;;6.10;3.67;;;;;;;3.30;91.55;99931.56;4992586;28;20034;-63
2021/12/05 08:16:00;;;;;;;7.18;4.30;;;;;;;3.40;90.91;99943.13;4991832;28;20535;-64
2021/12/05 08:18:27;;;;;;;7.85;4.50;;;;;;;3.40;91.25;99937.91;4991727;28;20133;-64
2021/12/05 08:20:53;;;;;;;6.63;4.28;;;;;;;3.40;90.92;99937.91;4991600;28;20038;-63
2021/12/05 08:23:20;;;;;;;6.80;4.00;;;;;;;3.41;90.84;99942.28;4991757;28;20211;-64
2021/12/05 08:25:53;;;;;;;6.43;3.90;;;;;;;3.43;91.19;99945.81;4991389;28;20038;-63
2021/12/05 08:30:50;;;;;;;5.18;3.90;;;;;;;3.45;91.20;99944.09;4991418;28;20061;-64
2021/12/05 08:36:41;;;;;;;6.88;3.83;;;;;;;3.50;90.78;99952.94;5073010;28;20047;-64
2021/12/05 08:44:32;;;;;;;6.45;4.50;;;;;;;3.52;90.95;99956.50;5072549;28;20438;-64
2021/12/05 10:02:48;;;;;;;7.07;4.80;;;;;;;3.96;90.46;100056.84;5075588;28;20035;-64
2021/12/05 10:11:06;;;;;;;10.20;6.47;;;;;;;4.00;91.08;100081.34;5075559;28;20043;-64
2021/12/05 10:13:54;;;;;;;6.63;4.97;;;;;;;4.01;91.63;100075.25;5075218;28;20425;-64
2021/12/05 10:36:09;;;;;;;8.40;4.97;;;;;;;4.03;91.30;100097.09;5074947;28;20039;-65
2021/12/05 10:38:47;;;;;;;6.43;5.00;;;;;;;4.05;91.15;100105.84;5074196;28;20064;-66
2021/12/05 10:43:46;;;;;;;8.20;5.07;;;;;;;4.04;91.64;100105.84;5094639;28;20039;-63
2021/12/05 10:46:17;;;;;;;7.57;5.15;;;;;;;4.02;90.44;100100.53;5094770;28;20032;-64
2021/12/05 10:48:52;;;;;;;8.98;5.07;;;;;;;4.02;90.40;100108.38;5094473;28;20056;-65
2021/12/05 10:51:28;;;;;;;7.68;5.63;;;;;;;4.04;90.13;100121.50;5087148;28;20056;-64
2021/12/05 10:54:21;;;;;;;8.75;5.32;;;;;;;3.98;90.59;100117.91;5094340;28;20415;-64
2021/12/05 10:56:51;;;;;;;6.85;5.07;;;;;;;4.00;90.65;100112.72;5072802;28;20430;-63
2021/12/05 10:59:42;;;;;;;9.43;5.75;;;;;;;3.98;91.04;100107.44;5094170;28;20108;-63
2021/12/05 11:02:12;;;;;;;7.47;5.53;;;;;;;3.98;90.29;100112.69;5090977;28;20383;-62
2021/12/05 11:04:44;;;;;;;7.25;5.35;;;;;;;3.97;90.26;100133.53;5094030;28;20131;-64
2021/12/05 11:07:14;;;;;;;;;;;;;;;4.00;89.87;100121.44;5094832;28;20429;-64
2021/12/05 11:09:41;;;;;;;7.57;5.20;;;;;;;4.00;89.58;100117.94;5093858;28;19907;-64
2021/12/05 11:12:15;;;;;;;10.10;5.88;;;;;;;3.99;89.63;100113.56;5094405;28;20028;-65
2021/12/05 11:14:43;;;;;;;8.82;5.90;;;;;;;4.01;89.64;100112.72;5094401;28;20024;-64
2021/12/05 11:17:11;;;;;;;14.18;10.88;;;;;;;4.02;90.18;100118.84;5093978;28;20077;-64
2021/12/05 11:19:37;;;;;;;9.32;5.80;;;;;;;4.09;89.54;100118.16;5094027;28;20024;-64
2021/12/05 11:22:35;;;;;;;8.75;5.90;;;;;;;4.13;89.61;100125.22;5094117;28;20077;-64
2021/12/05 11:25:09;;;;;;;5.13;4.00;;;;;;;4.14;88.21;100128.72;5088811;28;20083;-64
2021/12/05 11:27:40;;;;;;;5.07;3.92;;;;;;;4.16;88.44;100134.91;5093869;28;20067;-65
2021/12/05 11:30:17;;;;;;;4.97;3.20;;;;;;;4.17;89.00;100132.31;5093771;28;20044;-66
2021/12/05 11:32:45;;;;;;;4.35;3.20;;;;;;;4.17;88.05;100134.94;5075877;28;20434;-64
2021/12/05 11:35:39;;;;;;;4.47;3.08;;;;;;;4.19;87.67;100135.84;5093791;28;20073;-65
2021/12/05 11:38:13;;;;;;;4.30;3.00;;;;;;;4.19;88.49;100135.84;5093696;28;20054;-64
2021/12/05 11:40:47;;;;;;;5.50;3.15;;;;;;;4.18;88.05;100134.06;5093791;28;20028;-65
2021/12/05 11:43:20;;;;;;;4.50;3.00;;;;;;;4.18;87.31;100144.53;5093647;28;20177;-63
2021/12/05 11:45:59;;;;;;;4.13;3.17;;;;;;;4.18;87.20;100152.38;5093678;28;20020;-63
2021/12/05 11:48:35;;;;;;;5.03;3.78;;;;;;;4.14;87.31;100141.81;5093429;28;20393;-63
2021/12/05 11:51:16;;;;;;;6.07;3.85;;;;;;;4.20;87.53;100160.28;5093490;28;20088;-63
2021/12/05 11:53:51;;;;;;;5.30;3.42;;;;;;;4.22;87.48;100161.19;5093505;28;20028;-64
2021/12/05 11:56:35;;;;;;;5.60;3.42;;;;;;;4.27;88.36;100160.44;5093585;28;20035;-64
2021/12/05 11:59:28;;;;;;;4.38;3.22;;;;;;;4.29;86.94;100160.50;5092966;28;20020;-64
2021/12/05 12:01:57;;;;;;;3.45;2.63;;;;;;;4.31;87.44;100160.53;5093412;28;20487;-63
2021/12/05 12:04:36;;;;;;;6.03;3.72;;;;;;;4.31;87.63;100164.03;5093408;28;20039;-63
2021/12/05 12:07:14;;;;;;;5.50;3.30;;;;;;;4.34;87.87;100171.06;5093319;28;20047;-64
2021/12/05 12:09:44;;;;;;;4.38;3.15;;;;;;;4.36;87.84;100172.88;5074894;28;20028;-64
2021/12/05 12:12:10;;;;;;;4.28;3.38;;;;;;;4.40;87.93;100176.44;5093153;28;20031;-64
2021/12/05 12:14:35;;;;;;;4.50;3.17;;;;;;;4.36;86.37;100167.63;5092838;28;20024;-64
2021/12/05 12:17:04;;;;;;;3.90;3.00;;;;;;;4.36;86.72;100174.59;5093185;28;20439;-63
2021/12/05 12:19:30;;;;;;;5.97;3.90;;;;;;;4.37;86.28;100174.66;5092804;28;20387;-63
2021/12/05 12:21:59;;;;;;;10.30;5.20;;;;;;;4.40;86.59;100171.22;5093032;28;20031;-63
2021/12/05 12:24:27;;;;;;;4.75;3.28;;;;;;;4.44;86.80;100180.91;5093376;28;20032;-63
2021/12/05 12:26:53;;;;;;;5.43;2.92;;;;;;;4.48;87.02;100172.28;5092749;28;20493;-64
2021/12/05 12:29:21;;;;;;;4.72;3.10;;;;;;;4.56;85.79;100181.22;5092987;28;20020;-64
2021/12/05 12:31:53;;;;;;;4.20;2.95;;;;;;;4.59;85.51;100183.91;5092743;28;20398;-64
2021/12/05 12:34:21;;;;;;;4.32;3.20;;;;;;;4.62;85.99;100185.69;5075541;28;20028;-64
2021/12/05 12:36:49;;;;;;;4.50;3.40;;;;;;;4.66;85.01;100184.94;5092636;28;20028;-64
2021/12/05 12:39:20;;;;;;;4.15;3.33;;;;;;;4.69;85.60;100198.09;5090444;28;20020;-63
2021/12/05 12:42:19;;;;;;;4.38;3.15;;;;;;;4.68;85.33;100194.59;5092882;28;20032;-64
2021/12/05 12:45:21;;;;;;;3.90;3.22;;;;;;;4.69;85.19;100196.34;5092493;28;20055;-66
2021/12/05 12:47:53;;;;;;;4.38;3.42;;;;;;;4.72;85.02;100203.41;5074298;28;20058;-64
2021/12/05 12:50:34;;;;;;;4.05;3.28;;;;;;;4.75;85.63;100198.22;5074334;28;20024;-63
2021/12/05 12:53:10;;;;;;;4.40;3.30;;;;;;;4.76;84.72;100213.09;5092517;28;20028;-64
2021/12/05 12:55:39;;;;;;;8.07;3.88;;;;;;;4.74;85.50;100207.81;5092433;28;20019;-63
2021/12/05 12:58:07;;;;;;;6.05;4.30;;;;;;;4.76;85.47;100206.13;5074787;28;20067;-63
2021/12/05 13:00:36;;;;;;;5.18;4.05;;;;;;;4.77;84.87;100213.13;5092609;28;20020;-64
2021/12/05 13:03:15;;;;;;;6.88;3.85;;;;;;;4.74;84.39;100215.66;5092111;28;20474;-63
2021/12/05 13:11:24;;;;;;;4.65;3.88;;;;;;;4.78;85.43;100233.22;5092550;28;20086;-62
2021/12/05 13:14:07;;;;;;;4.53;3.90;;;;;;;4.78;85.56;100225.34;5092424;28;20352;-62
2021/12/05 13:16:36;;;;;;;4.53;3.58;;;;;;;4.73;84.79;100219.13;5092281;28;20165;-63
2021/12/05 13:19:10;;;;;;;4.60;3.30;;;;;;;4.74;85.18;100227.88;5091896;28;20082;-62
2021/12/05 13:21:42;;;;;;;4.22;3.35;;;;;;;4.68;84.62;100226.00;5074207;28;20587;-62
2021/12/05 13:24:42;;;;;;;4.32;3.40;;;;;;;4.68;85.43;100228.63;5092049;28;20414;-63
2021/12/05 13:27:24;;;;;;;6.72;4.10;;;;;;;4.70;84.89;100234.75;5095673;28;20036;-63
2021/12/05 13:29:52;;;;;;;5.20;3.70;;;;;;;4.75;85.02;100234.88;5096238;28;20081;-62
2021/12/05 13:32:25;;;;;;;5.07;4.32;;;;;;;4.72;84.95;100235.69;5096214;28;20128;-63
2021/12/05 13:34:55;;;;;;;5.13;4.10;;;;;;;4.75;85.39;100246.25;5096287;28;20108;-62
2021/12/05 13:37:28;;;;;;;5.63;4.20;;;;;;;4.77;84.67;100246.28;5096369;28;20063;-63
2021/12/05 13:40:10;;;;;;;5.03;4.10;;;;;;;4.79;85.05;100257.66;5095955;28;20038;-63
2021/12/05 13:42:42;;;;;;;5.32;4.10;;;;;;;4.79;84.87;100262.88;5096174;28;20107;-63
2021/12/05 13:45:07;;;;;;;5.40;4.28;;;;;;;4.76;84.28;100266.31;5096075;28;20032;-63
2021/12/05 13:47:39;;;;;;;4.82;3.63;;;;;;;4.77;85.34;100273.31;5095805;28;20081;-63
2021/12/05 13:50:27;;;;;;;6.75;4.30;;;;;;;4.76;84.05;100268.94;5077669;28;20028;-63
2021/12/05 13:53:07;;;;;;;5.20;4.05;;;;;;;4.77;84.39;100275.06;5096067;28;20020;-63
2021/12/05 13:55:42;;;;;;;4.85;3.60;;;;;;;4.78;85.02;100276.81;5095821;28;20030;-63
2021/12/05 13:58:24;;;;;;;6.13;3.50;;;;;;;4.79;85.06;100273.34;5095931;28;20028;-63
2021/12/05 14:00:53;;;;;;;;;;;;;;;4.83;85.60;100280.44;5096276;28;20043;-63
2021/12/05 14:03:38;;;;;;;5.72;3.60;;;;;;;4.81;84.66;100268.19;5095636;28;19926;-64
2021/12/05 14:06:30;;;;;;;4.40;3.63;;;;;;;4.81;85.46;100276.91;5095622;28;20409;-64
2021/12/05 14:09:06;;;;;;;5.70;3.85;;;;;;;4.84;84.97;100287.47;5095568;28;20112;-64
2021/12/05 14:11:35;;;;;;;4.57;3.50;;;;;;;4.81;84.78;100290.00;5095692;28;20081;-65
2021/12/05 14:14:07;;;;;;;5.60;3.45;;;;;;;4.87;85.04;100300.59;5095381;28;20066;-65
2021/12/05 14:16:34;;;;;;;;;;;;;;;4.93;85.64;100297.28;5095889;28;20592;-65
2021/12/05 14:18:59;;;;;;;6.40;3.65;;;;;;;4.89;84.46;100298.94;5095470;28;20289;-64
2021/12/05 14:21:26;;;;;;;5.50;3.70;;;;;;;4.88;84.43;100294.53;5095360;28;20031;-63
2021/12/05 14:23:58;;;;;;;5.07;4.00;;;;;;;4.92;84.37;100304.22;5095096;28;20082;-64
2021/12/05 14:26:26;;;;;;;5.20;3.85;;;;;;;4.94;84.62;100314.75;5095776;28;20109;-63
2021/12/05 14:29:05;;;;;;;5.13;4.03;;;;;;;4.95;84.39;100330.47;5095097;28;20115;-64
2021/12/05 14:31:35;;;;;;;4.85;3.90;;;;;;;4.96;84.19;100334.88;5094972;28;20218;-63
2021/12/05 14:34:03;;;;;;;6.38;4.60;;;;;;;4.96;83.76;100334.88;5094907;28;20220;-64
2021/12/05 14:36:35;;;;;;;6.82;4.28;;;;;;;4.96;83.68;100337.47;5094813;28;20027;-65
2021/12/05 14:39:07;;;;;;;5.32;4.20;;;;;;;5.00;83.48;100348.91;5095263;28;20436;-65
2021/12/05 14:41:33;;;;;;;5.40;3.67;;;;;;;5.00;83.99;100352.41;5095048;28;20020;-65
2021/12/05 14:44:07;;;;;;;5.97;4.45;;;;;;;5.01;83.99;100354.22;5094936;28;20394;-65
2021/12/05 14:46:33;;;;;;;5.78;4.60;;;;;;;5.05;84.07;100367.38;5094909;28;20051;-65
2021/12/05 14:49:02;;;;;;;6.25;4.20;;;;;;;5.07;83.46;100365.69;5094775;28;20047;-66
2021/12/05 14:51:36;;;;;;;7.25;4.35;;;;;;;5.05;84.14;100363.00;5094831;28;20024;-62
2021/12/05 14:54:06;;;;;;;8.88;4.50;;;;;;;5.06;83.36;100367.41;5094963;28;20020;-64
2021/12/05 14:56:37;;;;;;;5.93;4.07;;;;;;;5.09;83.27;100377.94;5095136;28;20028;-65
2021/12/05 14:59:05;;;;;;;4.78;4.00;;;;;;;5.10;83.06;100381.47;5094644;28;20028;-64
2021/12/05 15:01:38;;;;;;;5.70;4.05;;;;;;;5.10;82.98;100384.97;5093838;28;20378;-64
2021/12/05 15:04:06;;;;;;;4.90;3.78;;;;;;;5.08;82.53;100391.91;5087632;28;20039;-63
2021/12/05 15:06:39;;;;;;;4.70;4.07;;;;;;;5.08;82.70;100398.88;5086733;28;20039;-64
2021/12/05 15:09:16;;;;;;;4.70;3.70;;;;;;;5.07;82.02;100403.22;5094205;28;20103;-64
2021/12/05 15:12:07;;;;;;;5.82;4.00;;;;;;;5.10;82.26;100408.56;5094628;28;20082;-64
2021/12/05 15:14:35;;;;;;;4.38;3.45;;;;;;;5.07;82.33;100421.56;5094371;28;20410;-64
2021/12/05 15:17:05;;;;;;;4.95;3.95;;;;;;;5.08;82.20;100417.19;5094890;28;20028;-63
2021/12/05 15:19:30;;;;;;;4.22;3.55;;;;;;;5.10;82.64;100424.25;5094361;28;20036;-64
2021/12/05 15:21:57;;;;;;;5.30;4.13;;;;;;;5.09;82.26;100427.72;5076290;28;20396;-64
2021/12/05 15:24:27;;;;;;;4.63;3.83;;;;;;;5.13;82.44;100434.78;5094037;28;20469;-65
2021/12/05 15:26:54;;;;;;;5.40;4.03;;;;;;;5.16;81.95;100441.84;5094157;28;20040;-65
2021/12/05 15:29:20;;;;;;;6.25;4.55;;;;;;;5.13;82.04;100439.16;5094177;28;20027;-65
2021/12/05 15:31:46;;;;;;;8.02;4.88;;;;;;;5.16;81.82;100450.59;5094326;28;20504;-65
2021/12/05 15:34:22;;;;;;;6.68;4.80;;;;;;;5.17;82.04;100448.88;5093886;28;20108;-64
2021/12/05 15:36:48;;;;;;;6.57;4.70;;;;;;;5.17;82.62;100457.59;5093918;28;20024;-63
2021/12/05 15:39:19;;;;;;;6.00;4.35;;;;;;;5.18;82.81;100468.97;5093563;28;20024;-63
2021/12/05 15:41:54;;;;;;;9.23;6.40;;;;;;;5.12;82.64;100460.97;5093680;28;20032;-64
2021/12/05 15:44:42;;;;;;;17.13;10.10;;;;;;;5.19;82.87;100474.25;5093725;28;20032;-64
2021/12/05 15:47:12;;;;;;;12.88;8.65;;;;;;;5.16;83.26;100481.16;5093854;28;20081;-64
2021/12/05 15:50:01;;;;;;;14.57;10.27;;;;;;;5.15;83.28;100477.66;5093231;28;20492;-65
2021/12/05 15:52:40;;;;;;;12.65;8.00;;;;;;;5.15;83.01;100488.13;5093563;28;20478;-64
2021/12/05 15:55:19;;;;;;;10.68;7.65;;;;;;;5.13;83.16;100488.91;5093740;28;20458;-65
2021/12/05 15:57:50;;;;;;;15.13;10.52;;;;;;;5.15;83.08;100498.59;5075422;28;20442;-65
2021/12/05 16:00:30;;;;;;;7.72;6.10;;;;;;;5.14;83.04;100491.59;5093394;28;20024;-63
2021/12/05 16:03:07;;;;;;;6.38;4.55;;;;;;;5.13;83.10;100496.78;5093156;28;20035;-64
2021/12/05 16:05:36;;;;;;;6.20;4.50;;;;;;;5.05;82.68;100496.56;5093387;28;20031;-63
2021/12/05 16:08:11;;;;;;;6.10;4.43;;;;;;;5.13;83.24;100507.25;5093392;28;20034;-64
2021/12/05 16:10:43;;;;;;;7.43;4.78;;;;;;;5.14;83.04;100509.00;5093793;28;20032;-63
2021/12/05 16:13:18;;;;;;;6.53;4.82;;;;;;;5.15;82.94;100514.31;5093600;28;20028;-63
2021/12/05 16:15:46;;;;;;;7.22;4.60;;;;;;;5.16;83.53;100520.44;5094014;28;20024;-63
2021/12/05 16:18:12;;;;;;;5.93;4.30;;;;;;;5.15;83.50;100523.91;5093508;28;20552;-63
2021/12/05 16:20:40;;;;;;;6.57;4.60;;;;;;;5.12;82.66;100529.94;5093805;28;20025;-64
2021/12/05 16:23:17;;;;;;;13.85;7.82;;;;;;;5.09;82.90;100527.22;5094047;28;20028;-64
2021/12/05 16:25:56;;;;;;;7.80;5.65;;;;;;;5.09;82.80;100540.31;5093445;28;20035;-63
2021/12/05 16:28:38;;;;;;;6.93;4.97;;;;;;;5.11;83.20;100543.88;5093722;28;20024;-63
2021/12/05 16:31:12;;;;;;;7.07;5.15;;;;;;;5.14;83.14;100545.69;5093353;28;20044;-63
2021/12/05 16:33:39;;;;;;;6.00;4.72;;;;;;;5.18;82.95;100553.69;5093640;28;20067;-64
2021/12/05 16:36:08;;;;;;;7.47;5.32;;;;;;;5.18;82.98;100550.16;5093066;28;20397;-64
2021/12/05 16:38:50;;;;;;;12.75;8.38;;;;;;;5.19;83.44;100554.56;5093545;28;20063;-65
2021/12/05 16:41:30;;;;;;;7.30;5.47;;;;;;;5.18;83.43;100555.41;5093614;28;20020;-64
2021/12/05 16:44:01;;;;;;;7.25;5.28;;;;;;;5.19;83.76;100560.69;5093427;28;20032;-63
2021/12/05 16:46:36;;;;;;;8.30;6.25;;;;;;;5.23;83.64;100573.03;5093088;28;20057;-63
2021/12/05 16:49:06;;;;;;;9.25;6.55;;;;;;;5.20;83.24;100570.31;5093136;28;20035;-64
2021/12/05 16:51:47;;;;;;;9.07;6.40;;;;;;;5.16;83.59;100571.06;5093221;28;20027;-64
2021/12/05 16:54:21;;;;;;;10.93;7.40;;;;;;;5.11;83.60;100564.84;5093237;28;20107;-63
2021/12/05 16:56:57;;;;;;;8.10;5.93;;;;;;;5.12;83.79;100568.34;5093192;28;20063;-64
2021/12/05 16:59:39;;;;;;;8.73;6.43;;;;;;;5.11;84.12;100564.84;5092708;28;20028;-63
2021/12/05 17:02:20;;;;;;;7.20;5.68;;;;;;;5.09;83.66;100571.75;5092619;28;20474;-64
2021/12/05 17:05:03;;;;;;;8.68;6.20;;;;;;;5.10;83.47;100575.28;5092942;28;20039;-64
2021/12/05 17:08:16;;;;;;;10.02;6.00;;;;;;;5.14;83.46;100585.88;5075339;28;20428;-64
2021/12/05 17:11:00;;;;;;;10.10;6.90;;;;;;;5.14;83.72;100578.03;5011293;28;20115;-63
2021/12/05 17:13:38;;;;;;;9.98;6.47;;;;;;;5.15;83.73;100592.00;5010948;28;20289;-63
2021/12/05 17:16:10;;;;;;;14.30;10.48;;;;;;;5.17;84.21;100600.78;5010769;28;20033;-64